Time;durP1;ratioP1;P1;durP2;ratioP2;P2;SDS_P1;SDS_P2;PMS_P1;PMS_P2;Temp;Humidity;BMP_temperature;BMP_pressure;BME280_temperature;BME280_humidity;BME280_pressure;Samples;Min_cycle;Max_cycle;Signal;HPM_P1;HPM_P2
2021/03/17 04:05:57;;;;;;;43.75;14.13;;;;;;;0.17;100.00;99251.69;1762509;80;21508;-65
2021/03/17 04:08:25;;;;;;;41.18;14.00;;;;;;;0.15;100.00;99261.29;1769967;80;21188;-63
2021/03/17 04:10:58;;;;;;;33.10;12.90;;;;;;;0.15;100.00;99261.29;1736290;80;21140;-63
2021/03/17 04:13:26;;;;;;;;;;;;;;;0.16;100.00;99261.61;1761132;80;21588;-68
2021/03/17 04:15:56;;;;;;;47.38;14.70;;;;;;;0.18;100.00;99262.27;1755912;79;22163;-65
2021/03/17 04:18:33;;;;;;;43.60;13.55;;;;;;;0.17;100.00;99256.81;1754580;80;20948;-64
2021/03/17 04:21:05;;;;;;;40.03;15.00;;;;;;;0.17;100.00;99259.38;1756589;80;20994;-66
2021/03/17 04:23:33;;;;;;;32.08;13.40;;;;;;;0.18;100.00;99260.98;1761422;79;21236;-65
2021/03/17 04:26:01;;;;;;;46.53;13.25;;;;;;;0.18;100.00;99247.37;1724086;79;21124;-65
2021/03/17 04:28:29;;;;;;;41.15;12.37;;;;;;;0.17;100.00;99247.84;1726256;81;21395;-66
2021/03/17 04:30:59;;;;;;;40.50;14.43;;;;;;;0.18;100.00;99246.09;1760934;79;21776;-68
2021/03/17 04:33:28;;;;;;;39.85;11.48;;;;;;;0.17;100.00;99240.63;1722286;81;21197;-66
2021/03/17 04:35:58;;;;;;;54.95;14.75;;;;;;;0.17;100.00;99249.13;1757385;80;21219;-68
2021/03/17 04:38:27;;;;;;;37.88;12.73;;;;;;;0.16;100.00;99243.67;1757348;81;21136;-70
2021/03/17 04:40:55;;;;;;;41.90;14.05;;;;;;;0.15;100.00;99242.52;1757757;80;21398;-68
2021/03/17 04:43:22;;;;;;;45.40;13.13;;;;;;;0.12;100.00;99237.22;1755763;79;21459;-69
2021/03/17 04:45:50;;;;;;;38.67;13.10;;;;;;;0.11;100.00;99239.91;1759665;79;21196;-67
2021/03/17 04:48:19;;;;;;;46.02;13.30;;;;;;;0.09;100.00;99236.22;1761684;79;21203;-73
2021/03/17 04:50:47;;;;;;;35.48;12.47;;;;;;;0.08;100.00;99240.21;1749300;80;21196;-79
2021/03/17 04:53:15;;;;;;;50.88;14.75;;;;;;;0.06;100.00;99242.89;1758035;80;22640;-72
2021/03/17 04:55:43;;;;;;;40.40;13.75;;;;;;;0.05;100.00;99242.57;1767610;80;21081;-72
2021/03/17 04:58:15;;;;;;;44.70;15.35;;;;;;;0.06;100.00;99240.33;1819167;77;21065;-69
2021/03/17 05:00:45;;;;;;;44.58;12.88;;;;;;;0.06;100.00;99241.61;1806648;78;21457;-73
2021/03/17 05:03:16;;;;;;;31.12;12.05;;;;;;;0.05;100.00;99243.85;1814436;77;21053;-68
2021/03/17 05:05:44;;;;;;;38.02;12.45;;;;;;;0.02;100.00;99241.56;1816496;77;21362;-67
2021/03/17 05:08:12;;;;;;;46.95;15.20;;;;;;;-0.03;100.00;99246.31;1812863;77;21062;-68
2021/03/17 05:10:40;;;;;;;45.75;15.78;;;;;;;-0.09;100.00;99245.09;1787873;77;20994;-67
2021/03/17 05:13:10;;;;;;;40.03;13.78;;;;;;;-0.12;100.00;99252.25;1814031;77;21182;-68
2021/03/17 05:15:38;;;;;;;58.28;16.97;;;;;;;-0.16;100.00;99250.92;1812162;78;21595;-68
2021/03/17 05:18:07;;;;;;;42.62;14.70;;;;;;;-0.18;100.00;99251.06;1808907;77;22631;-70
2021/03/17 05:20:35;;;;;;;42.43;16.25;;;;;;;-0.20;100.00;99249.58;1814297;77;21485;-72
2021/03/17 05:23:02;;;;;;;41.60;14.10;;;;;;;-0.22;100.00;99258.70;1813485;77;21196;-70
2021/03/17 05:25:31;;;;;;;42.88;14.85;;;;;;;-0.26;100.00;99255.60;1813415;77;21479;-68
2021/03/17 05:28:04;;;;;;;45.23;15.08;;;;;;;-0.26;100.00;99256.08;1814843;77;20999;-66
2021/03/17 05:30:37;;;;;;;37.05;13.68;;;;;;;-0.29;100.00;99264.03;1811093;77;22099;-67
2021/03/17 05:33:07;;;;;;;54.83;17.55;;;;;;;-0.29;100.00;99249.95;1814297;77;21584;-66
2021/03/17 05:35:36;;;;;;;37.88;15.03;;;;;;;-0.28;100.00;99249.00;1814418;77;21187;-65
2021/03/17 05:38:04;;;;;;;41.05;16.00;;;;;;;-0.29;100.00;99253.31;1815034;77;21101;-66
2021/03/17 05:40:32;;;;;;;38.42;14.13;;;;;;;-0.30;100.00;99246.59;1812831;77;21112;-64
2021/03/17 05:43:01;;;;;;;42.50;16.95;;;;;;;-0.27;100.00;99260.84;1813983;77;21156;-65
2021/03/17 05:45:30;;;;;;;39.03;15.05;;;;;;;-0.27;100.00;99266.77;1812307;77;21112;-65
2021/03/17 05:47:59;;;;;;;43.13;14.00;;;;;;;-0.25;100.00;99257.69;1811741;77;21148;-66
2021/03/17 05:50:28;;;;;;;42.58;15.60;;;;;;;-0.25;100.00;99261.05;1813378;77;21631;-64
2021/03/17 05:52:57;;;;;;;50.12;14.73;;;;;;;-0.22;100.00;99268.14;1814607;77;21638;-64
2021/03/17 05:55:25;;;;;;;39.88;14.05;;;;;;;-0.22;100.00;99269.42;1812235;77;21152;-63
2021/03/17 05:57:53;;;;;;;43.38;14.47;;;;;;;-0.21;100.00;99262.06;1812531;77;21054;-67
2021/03/17 06:00:23;;;;;;;39.88;14.03;;;;;;;-0.21;100.00;99269.27;1813942;77;21100;-65
2021/03/17 06:02:51;;;;;;;36.63;13.80;;;;;;;-0.19;100.00;99273.80;1815250;77;21069;-65
2021/03/17 06:05:40;;;;;;;32.67;13.18;;;;;;;-0.18;100.00;99275.88;1809682;77;21154;-65
2021/03/17 06:08:24;;;;;;;32.30;13.05;;;;;;;-0.17;100.00;99278.29;1699749;82;21077;-64
2021/03/17 06:10:52;;;;;;;29.67;12.70;;;;;;;-0.17;100.00;99277.01;1729584;81;21610;-64
2021/03/17 06:13:21;;;;;;;38.28;12.00;;;;;;;-0.18;100.00;99283.08;1726200;82;21122;-68
2021/03/17 06:16:01;;;;;;;31.02;12.40;;;;;;;-0.17;100.00;99285.97;1755252;79;21120;-64
2021/03/17 06:18:43;;;;;;;38.95;13.38;;;;;;;-0.15;100.00;99281.98;1759098;79;21558;-65
2021/03/17 06:21:10;;;;;;;28.00;12.45;;;;;;;-0.16;100.00;99286.30;1749670;80;22781;-65
2021/03/17 06:23:39;;;;;;;33.00;12.80;;;;;;;-0.18;100.00;99275.41;1750477;79;21508;-64
2021/03/17 06:26:08;;;;;;;29.25;12.37;;;;;;;-0.17;100.00;99278.77;1756455;79;21476;-64
2021/03/17 06:28:36;;;;;;;28.25;12.58;;;;;;;-0.19;100.00;99285.77;1746424;79;21165;-63
2021/03/17 06:31:04;;;;;;;31.23;11.53;;;;;;;-0.20;100.00;99290.56;1749956;79;21161;-64
2021/03/17 06:33:32;;;;;;;33.48;12.75;;;;;;;-0.19;100.00;99281.92;1745227;79;21495;-63
2021/03/17 06:36:17;;;;;;;34.55;13.85;;;;;;;-0.20;100.00;99288.00;1746091;80;21136;-62
2021/03/17 06:38:47;;;;;;;29.72;12.73;;;;;;;-0.20;100.00;99281.12;1749285;80;21061;-64
2021/03/17 06:41:17;;;;;;;27.48;12.07;;;;;;;-0.19;100.00;99280.64;1753880;79;21509;-63
2021/03/17 06:43:49;;;;;;;31.48;11.35;;;;;;;-0.18;100.00;99281.00;1732887;81;21125;-63
2021/03/17 06:46:18;;;;;;;23.47;9.90;;;;;;;-0.18;100.00;99279.72;1752074;79;22271;-64
2021/03/17 06:48:49;;;;;;;24.55;11.50;;;;;;;-0.17;100.00;99276.20;1747215;80;20947;-64
2021/03/17 06:51:19;;;;;;;27.80;12.15;;;;;;;-0.16;100.00;99282.94;1750764;79;21230;-64
2021/03/17 06:53:54;;;;;;;21.90;11.40;;;;;;;-0.20;100.00;99270.88;1745692;80;21579;-64
2021/03/17 06:56:27;;;;;;;25.45;11.15;;;;;;;-0.20;100.00;99270.88;1748276;79;21903;-66
2021/03/17 06:58:59;;;;;;;25.35;13.72;;;;;;;-0.18;100.00;99269.48;1722785;82;21263;-64
2021/03/17 07:01:45;;;;;;;43.75;25.45;;;;;;;-0.19;100.00;99275.52;1748493;80;21141;-65
2021/03/17 07:04:21;;;;;;;39.27;28.42;;;;;;;-0.18;100.00;99268.20;1746185;79;21612;-66
2021/03/17 07:06:51;;;;;;;36.50;14.13;;;;;;;-0.18;100.00;99272.03;1758026;79;21130;-63
2021/03/17 07:09:26;;;;;;;23.73;9.73;;;;;;;-0.17;100.00;99271.08;1741994;80;21199;-63
2021/03/17 07:12:11;;;;;;;20.77;10.58;;;;;;;-0.15;100.00;99267.89;1762349;79;22134;-64
2021/03/17 07:14:43;;;;;;;15.48;10.03;;;;;;;-0.15;100.00;99271.73;1763447;80;21167;-64
2021/03/17 07:17:28;;;;;;;24.30;10.35;;;;;;;-0.14;100.00;99272.09;1768910;79;21068;-64
2021/03/17 07:19:56;;;;;;;19.87;10.28;;;;;;;-0.12;100.00;99272.75;1764345;79;21229;-65
2021/03/17 07:22:24;;;;;;;28.85;12.23;;;;;;;-0.13;100.00;99271.94;1764694;79;21125;-65
2021/03/17 07:24:54;;;;;;;15.98;8.75;;;;;;;-0.12;100.00;99274.02;1738247;81;21378;-64
2021/03/17 07:27:27;;;;;;;20.43;9.03;;;;;;;-0.10;100.00;99273.42;1765025;79;22038;-65
2021/03/17 07:30:08;;;;;;;16.52;8.85;;;;;;;-0.11;100.00;99268.78;1775047;79;21104;-65
2021/03/17 07:32:59;;;;;;;15.78;9.23;;;;;;;-0.11;100.00;99275.66;1771608;79;21209;-62
2021/03/17 07:35:34;;;;;;;21.27;8.70;;;;;;;-0.10;100.00;99273.42;1777947;79;21227;-62
2021/03/17 07:38:10;;;;;;;16.25;9.28;;;;;;;-0.08;100.00;99270.23;1776781;79;22005;-64
2021/03/17 07:40:44;;;;;;;17.27;8.13;;;;;;;-0.08;100.00;99271.52;1781702;79;21191;-62
2021/03/17 07:43:14;;;;;;;13.70;7.50;;;;;;;-0.07;100.00;99273.16;1781915;79;21062;-63
2021/03/17 07:45:42;;;;;;;15.13;8.08;;;;;;;-0.07;100.00;99266.27;1784657;79;21132;-62
2021/03/17 07:48:12;;;;;;;15.65;8.73;;;;;;;-0.04;100.00;99266.45;1781930;79;21072;-65
2021/03/17 07:50:41;;;;;;;13.85;8.13;;;;;;;-0.03;100.00;99265.52;1782648;79;21373;-63
2021/03/17 07:53:25;;;;;;;16.45;8.25;;;;;;;-0.01;100.00;99266.17;1781600;79;21215;-64
2021/03/17 07:55:56;;;;;;;16.57;8.93;;;;;;;-0.01;100.00;99264.41;1785438;79;21131;-63
2021/03/17 07:58:24;;;;;;;13.18;7.83;;;;;;;0.00;100.00;99265.25;1785157;79;21124;-63
2021/03/17 08:00:52;;;;;;;14.93;8.55;;;;;;;0.02;100.00;99262.06;1787480;79;21172;-63
2021/03/17 08:03:21;;;;;;;13.65;9.40;;;;;;;0.03;100.00;99262.38;1782709;79;21285;-64
2021/03/17 08:05:49;;;;;;;18.73;9.45;;;;;;;0.06;100.00;99260.83;1799135;77;21226;-64
2021/03/17 08:08:18;;;;;;;17.60;9.90;;;;;;;0.07;100.00;99258.59;1772074;77;21248;-65
2021/03/17 08:10:47;;;;;;;15.35;8.85;;;;;;;0.08;100.00;99262.80;1828789;77;21017;-63
2021/03/17 08:13:16;;;;;;;13.80;8.25;;;;;;;0.12;100.00;99260.28;1779367;79;21135;-64
2021/03/17 08:15:45;;;;;;;14.53;8.98;;;;;;;0.15;100.00;99260.45;1832827;77;20982;-64
2021/03/17 08:18:36;;;;;;;13.72;9.03;;;;;;;0.17;100.00;99258.58;1822705;77;21188;-64
2021/03/17 08:21:05;;;;;;;12.13;7.67;;;;;;;0.16;100.00;99259.05;1825945;77;21100;-63
2021/03/17 08:23:48;;;;;;;16.02;9.60;;;;;;;0.21;100.00;99257.34;1835428;77;21567;-64
2021/03/17 08:26:27;;;;;;;12.93;8.60;;;;;;;0.24;100.00;99254.02;1780045;79;21144;-64
2021/03/17 08:28:56;;;;;;;15.60;9.08;;;;;;;0.29;100.00;99252.79;1836872;77;21226;-65
2021/03/17 08:31:42;;;;;;;12.33;8.70;;;;;;;0.32;100.00;99248.67;1830789;77;21204;-66
2021/03/17 08:34:23;;;;;;;20.10;9.90;;;;;;;0.35;100.00;99249.67;1836379;77;21184;-65
2021/03/17 08:36:58;;;;;;;14.10;8.65;;;;;;;0.39;100.00;99244.59;1838714;77;21006;-62
2021/03/17 08:39:42;;;;;;;17.95;8.28;;;;;;;0.43;100.00;99244.16;1826035;77;21650;-62
2021/03/17 08:42:29;;;;;;;16.40;10.13;;;;;;;0.47;100.00;99240.83;1836964;77;21451;-62
2021/03/17 08:44:59;;;;;;;16.25;7.65;;;;;;;0.46;100.00;99244.36;1830304;77;21051;-61
2021/03/17 08:47:35;;;;;;;13.22;8.40;;;;;;;0.47;100.00;99253.66;1829297;77;21551;-60
2021/03/17 08:50:26;;;;;;;16.40;9.50;;;;;;;0.49;100.00;99250.45;1830660;77;20966;-61
2021/03/17 08:53:12;;;;;;;13.85;8.93;;;;;;;0.54;100.00;99246.20;1830210;77;21132;-63
2021/03/17 08:55:40;;;;;;;11.63;8.30;;;;;;;0.58;100.00;99245.77;1761928;77;21542;-63
2021/03/17 08:58:10;;;;;;;11.15;8.75;;;;;;;0.60;100.00;99246.41;1828293;77;21038;-66
2021/03/17 09:00:59;;;;;;;13.43;9.50;;;;;;;0.64;100.00;99246.45;1836669;77;22407;-62
2021/03/17 09:03:43;;;;;;;14.73;8.33;;;;;;;0.68;100.00;99243.96;1836137;77;21010;-66
2021/03/17 09:06:27;;;;;;;12.05;8.08;;;;;;;0.71;100.00;99241.08;1828006;77;21196;-67
2021/03/17 09:09:07;;;;;;;15.40;8.98;;;;;;;0.75;100.00;99242.08;1786926;78;21160;-67
2021/03/17 09:11:40;;;;;;;11.35;7.60;;;;;;;0.80;100.00;99240.71;1761399;80;20944;-62
2021/03/17 09:14:08;;;;;;;10.05;8.05;;;;;;;0.82;100.00;99237.98;1826793;77;21132;-62
2021/03/17 09:16:41;;;;;;;11.60;7.92;;;;;;;0.83;100.00;99231.90;1835805;77;21124;-63
2021/03/17 09:19:13;;;;;;;11.90;8.10;;;;;;;0.86;100.00;99236.74;1759829;79;21201;-66
2021/03/17 09:21:45;;;;;;;11.60;8.35;;;;;;;0.91;100.00;99235.82;1834558;77;21223;-61
2021/03/17 09:24:33;;;;;;;14.03;8.55;;;;;;;0.95;100.00;99242.30;1784660;79;21193;-61
2021/03/17 09:27:05;;;;;;;12.35;7.53;;;;;;;0.99;100.00;99244.91;1759749;80;21681;-60
2021/03/17 09:29:35;;;;;;;12.75;8.38;;;;;;;1.03;100.00;99239.81;1828312;77;21089;-63
2021/03/17 09:32:04;;;;;;;11.45;8.70;;;;;;;1.11;100.00;99230.89;1834157;77;21165;-60
2021/03/17 09:34:34;;;;;;;12.00;7.80;;;;;;;1.20;100.00;99235.12;1786023;79;21208;-62
2021/03/17 09:37:09;;;;;;;11.38;7.30;;;;;;;1.32;100.00;99226.71;1757693;79;21026;-62
2021/03/17 09:39:37;;;;;;;12.35;8.18;;;;;;;1.36;100.00;99229.80;1831271;77;21144;-63
2021/03/17 09:42:06;;;;;;;11.40;8.18;;;;;;;1.41;100.00;99236.11;1786576;79;37479;-62
2021/03/17 09:44:34;;;;;;;12.10;8.73;;;;;;;1.46;100.00;99244.64;1715842;79;21120;-65
2021/03/17 09:47:01;;;;;;;11.80;7.28;;;;;;;1.47;100.00;99252.66;1825549;77;21189;-61
2021/03/17 09:49:34;;;;;;;10.75;7.67;;;;;;;1.49;100.00;99252.05;1834696;77;21002;-64
2021/03/17 09:52:03;;;;;;;9.63;7.72;;;;;;;1.53;100.00;99250.80;1828195;77;21080;-62
2021/03/17 09:54:33;;;;;;;12.78;8.58;;;;;;;1.55;100.00;99250.16;1835298;77;21128;-65
2021/03/17 09:57:06;;;;;;;12.43;9.18;;;;;;;1.60;100.00;99244.59;1785921;79;21102;-62
2021/03/17 09:59:43;;;;;;;12.20;8.70;;;;;;;1.64;100.00;99245.42;1825324;77;22093;-61
2021/03/17 10:02:17;;;;;;;13.28;8.30;;;;;;;1.68;100.00;99248.02;1766685;79;21172;-61
2021/03/17 10:04:56;;;;;;;9.75;7.50;;;;;;;1.70;100.00;99238.41;1768519;79;21086;-62
2021/03/17 10:07:29;;;;;;;12.70;8.03;;;;;;;1.70;100.00;99239.69;1771721;79;21124;-65
2021/03/17 10:09:58;;;;;;;12.03;8.53;;;;;;;1.70;100.00;99238.41;1744991;80;21194;-62
2021/03/17 10:12:29;;;;;;;10.50;7.90;;;;;;;1.70;100.00;99241.43;1817765;77;21554;-61
2021/03/17 10:15:03;;;;;;;11.10;7.60;;;;;;;1.69;100.00;99249.62;1818716;77;21550;-62
2021/03/17 10:17:30;;;;;;;13.53;8.83;;;;;;;1.72;100.00;99250.28;1774801;80;21148;-62
2021/03/17 10:20:05;;;;;;;11.55;8.30;;;;;;;1.75;100.00;99253.84;1783777;78;21005;-66
2021/03/17 10:22:33;;;;;;;12.55;9.13;;;;;;;1.74;100.00;99252.20;1813838;77;21633;-65
2021/03/17 10:25:13;;;;;;;11.20;8.65;;;;;;;1.74;100.00;99250.44;1814289;77;21351;-65
2021/03/17 10:27:46;;;;;;;10.93;9.15;;;;;;;1.78;100.00;99250.95;1776106;79;21149;-65
2021/03/17 10:30:17;;;;;;;11.10;8.63;;;;;;;1.79;100.00;99245.67;1769593;80;21165;-64
2021/03/17 10:32:47;;;;;;;11.12;8.13;;;;;;;1.78;100.00;99245.81;1771064;80;21141;-63
2021/03/17 10:35:17;;;;;;;;;;;;;;;1.78;100.00;99241.95;1750648;80;21615;-63
2021/03/17 10:37:46;;;;;;;12.50;9.10;;;;;;;1.80;100.00;99246.00;1769694;79;20693;-67
2021/03/17 10:40:25;;;;;;;10.32;7.50;;;;;;;1.82;100.00;99247.95;1777138;79;21367;-62
2021/03/17 10:42:59;;;;;;;11.90;7.12;;;;;;;1.83;100.00;99243.61;1749749;80;21441;-63
2021/03/17 10:45:46;;;;;;;11.20;9.00;;;;;;;1.83;100.00;99242.33;1775241;79;21199;-61
2021/03/17 10:48:22;;;;;;;12.68;8.55;;;;;;;1.81;100.00;99237.33;1818561;77;21144;-63
2021/03/17 10:50:51;;;;;;;15.13;9.53;;;;;;;1.81;100.00;99239.09;1774622;80;22370;-66
2021/03/17 10:53:24;;;;;;;12.90;8.90;;;;;;;1.84;100.00;99231.08;1745741;80;21208;-63
2021/03/17 10:55:54;;;;;;;12.23;9.35;;;;;;;1.88;100.00;99231.10;1767837;80;21130;-63
2021/03/17 10:58:31;;;;;;;11.75;8.63;;;;;;;1.90;100.00;99235.62;1766050;80;21373;-64
2021/03/17 11:01:01;;;;;;;11.30;8.05;;;;;;;1.91;100.00;99234.66;1815525;77;21199;-67
2021/03/17 11:03:37;;;;;;;10.45;8.45;;;;;;;1.92;100.00;99237.55;1776837;79;21558;-63
2021/03/17 11:06:21;;;;;;;12.65;8.60;;;;;;;1.90;100.00;99238.20;1819464;77;21160;-63
2021/03/17 11:09:05;;;;;;;9.23;8.00;;;;;;;1.91;100.00;99235.95;1816554;77;20970;-63
2021/03/17 11:12:14;;;;;;;10.82;8.50;;;;;;;1.97;100.00;99237.09;1790201;77;21643;-63
2021/03/17 11:14:42;;;;;;;11.50;9.53;;;;;;;1.99;100.00;99239.04;1817815;78;21151;-64
2021/03/17 11:17:11;;;;;;;10.18;8.65;;;;;;;1.98;100.00;99229.24;1821293;77;21536;-62
2021/03/17 11:19:41;;;;;;;10.45;8.38;;;;;;;2.01;100.00;99230.68;1781268;79;21045;-66
2021/03/17 11:22:10;;;;;;;11.90;9.28;;;;;;;2.02;100.00;99224.13;1769323;80;21240;-63
2021/03/17 11:24:38;;;;;;;11.43;9.70;;;;;;;2.06;100.00;99222.85;1772300;80;21188;-62
2021/03/17 11:27:06;;;;;;;11.03;9.13;;;;;;;2.09;100.00;99226.41;1819986;77;21187;-62
2021/03/17 11:29:35;;;;;;;12.43;8.63;;;;;;;2.14;100.00;99222.88;1820284;77;21208;-63
2021/03/17 11:32:07;;;;;;;14.05;10.25;;;;;;;2.21;100.00;99229.51;1821038;78;21224;-62
2021/03/17 11:34:36;;;;;;;10.75;8.93;;;;;;;2.23;100.00;99225.48;1823865;77;21639;-62
2021/03/17 11:37:04;;;;;;;9.80;8.78;;;;;;;2.25;100.00;99228.72;1781260;79;21540;-61
2021/03/17 11:39:33;;;;;;;8.98;7.72;;;;;;;2.24;100.00;99225.83;1774926;79;21182;-61
2021/03/17 11:42:01;;;;;;;10.72;9.35;;;;;;;2.23;100.00;99222.91;1764282;80;21457;-62
2021/03/17 11:44:30;;;;;;;10.05;8.38;;;;;;;2.22;100.00;99224.68;1821753;77;21706;-61
2021/03/17 11:46:58;;;;;;;10.75;8.50;;;;;;;2.25;100.00;99219.23;1824478;77;21187;-62
2021/03/17 11:49:26;;;;;;;14.25;10.68;;;;;;;2.28;100.00;99217.64;1819122;78;21184;-62
2021/03/17 11:51:54;;;;;;;15.00;11.68;;;;;;;2.34;100.00;99217.01;1822045;77;21156;-62
2021/03/17 11:54:25;;;;;;;15.13;11.08;;;;;;;2.37;100.00;99216.70;1814953;78;22189;-61
2021/03/17 11:56:55;;;;;;;14.43;11.28;;;;;;;2.42;100.00;99218.34;1818841;77;21191;-61
2021/03/17 11:59:23;;;;;;;14.70;11.03;;;;;;;2.47;100.00;99214.50;1782777;78;21203;-62
2021/03/17 12:01:53;;;;;;;15.75;12.78;;;;;;;2.48;100.00;99217.39;1820872;77;21048;-60
2021/03/17 12:04:21;;;;;;;15.45;12.78;;;;;;;2.52;100.00;99216.11;1777189;79;21177;-61
2021/03/17 12:06:50;;;;;;;14.98;11.90;;;;;;;2.53;100.00;99213.37;1766555;80;21401;-62
2021/03/17 12:09:19;;;;;;;14.87;11.78;;;;;;;2.54;100.00;99215.00;1813491;78;21155;-64
2021/03/17 12:11:49;;;;;;;16.45;12.05;;;;;;;2.54;100.00;99214.17;1821149;77;21009;-61
2021/03/17 12:14:18;;;;;;;13.53;10.53;;;;;;;2.53;100.00;99219.00;1808006;78;20998;-61
2021/03/17 12:16:46;;;;;;;12.47;10.70;;;;;;;2.53;100.00;99212.56;1813912;77;21106;-62
2021/03/17 12:19:14;;;;;;;15.72;11.90;;;;;;;2.53;100.00;99215.14;1808314;77;21144;-62
2021/03/17 12:21:41;;;;;;;14.87;11.93;;;;;;;2.53;100.00;99206.94;1806457;77;21026;-61
2021/03/17 12:24:10;;;;;;;18.32;14.20;;;;;;;2.53;100.00;99210.80;1804507;77;21027;-62
2021/03/17 12:26:38;;;;;;;19.95;13.10;;;;;;;2.53;100.00;99202.28;1808298;77;21520;-62
2021/03/17 12:29:07;;;;;;;17.90;13.75;;;;;;;2.55;100.00;99210.66;1806786;77;21101;-61
2021/03/17 12:31:35;;;;;;;16.80;12.15;;;;;;;2.55;100.00;99202.45;1807989;77;21277;-62
2021/03/17 12:34:03;;;;;;;17.50;12.93;;;;;;;2.57;100.00;99206.95;1811130;77;21106;-60
2021/03/17 12:36:31;;;;;;;15.60;11.48;;;;;;;2.59;100.00;99207.61;1810273;77;21137;-60
2021/03/17 12:38:59;;;;;;;14.25;11.57;;;;;;;2.62;100.00;99209.88;1808463;77;21239;-61
2021/03/17 12:41:28;;;;;;;15.70;12.33;;;;;;;2.62;100.00;99204.73;1812989;77;21978;-60
2021/03/17 12:43:55;;;;;;;16.17;11.60;;;;;;;2.63;100.00;99203.76;1808737;77;21527;-60
2021/03/17 12:46:25;;;;;;;14.80;11.88;;;;;;;2.64;100.00;99205.36;1808648;77;21058;-62
2021/03/17 12:48:53;;;;;;;16.27;12.78;;;;;;;2.66;100.00;99212.94;1806179;77;21158;-61
2021/03/17 12:51:21;;;;;;;13.68;11.30;;;;;;;2.67;100.00;99214.54;1808114;77;21584;-60
2021/03/17 12:53:50;;;;;;;15.38;10.60;;;;;;;2.68;100.00;99210.99;1802401;77;21141;-60
2021/03/17 12:56:19;;;;;;;15.38;11.95;;;;;;;2.70;100.00;99216.00;1807929;77;22626;-59
2021/03/17 12:58:46;;;;;;;15.75;12.60;;;;;;;2.66;100.00;99213.73;1809134;77;21015;-62
2021/03/17 13:01:14;;;;;;;15.98;13.03;;;;;;;2.65;100.00;99208.28;1804556;77;21007;-60
2021/03/17 13:03:43;;;;;;;17.85;12.63;;;;;;;2.68;100.00;99210.99;1805223;77;21140;-61
2021/03/17 13:06:11;;;;;;;15.30;12.75;;;;;;;2.68;100.00;99207.94;1807936;77;21603;-61
2021/03/17 13:08:40;;;;;;;17.42;12.90;;;;;;;2.67;100.00;99206.82;1806371;77;21152;-64
2021/03/17 13:11:08;;;;;;;16.60;12.07;;;;;;;2.66;100.00;99202.64;1768599;79;21169;-60
2021/03/17 13:13:37;;;;;;;18.17;12.70;;;;;;;2.65;100.00;99207.45;1779680;79;21019;-59
2021/03/17 13:16:06;;;;;;;19.50;13.93;;;;;;;2.64;100.00;99199.41;1761493;80;21133;-60
2021/03/17 13:18:34;;;;;;;17.67;13.03;;;;;;;2.64;100.00;99200.70;1791831;78;21622;-65
2021/03/17 13:21:03;;;;;;;18.57;12.73;;;;;;;2.63;100.00;99207.61;1777830;79;21563;-61
2021/03/17 13:23:31;;;;;;;18.17;12.30;;;;;;;2.61;100.00;99200.55;1777077;79;21243;-60
2021/03/17 13:26:00;;;;;;;20.97;13.60;;;;;;;2.59;100.00;99205.03;1776598;79;21654;-61
2021/03/17 13:28:28;;;;;;;19.45;13.78;;;;;;;2.57;100.00;99206.95;1775429;80;21185;-62
2021/03/17 13:30:57;;;;;;;15.98;13.10;;;;;;;2.55;100.00;99205.52;1768940;80;21057;-66
2021/03/17 13:33:26;;;;;;;21.07;14.98;;;;;;;2.52;100.00;99209.20;1769969;80;21527;-61
2021/03/17 13:35:55;;;;;;;17.55;14.65;;;;;;;2.51;100.00;99208.87;1770052;80;21036;-61
2021/03/17 13:38:24;;;;;;;17.27;13.28;;;;;;;2.50;100.00;99212.42;1773067;80;21192;-60
2021/03/17 13:40:52;;;;;;;19.00;14.23;;;;;;;2.49;100.00;99215.13;1766441;80;21575;-66
2021/03/17 13:43:20;;;;;;;19.17;16.05;;;;;;;2.45;100.00;99209.49;1763203;80;21604;-62
2021/03/17 13:45:48;;;;;;;20.45;14.43;;;;;;;2.45;100.00;99214.64;1772040;80;22129;-61
2021/03/17 13:48:17;;;;;;;19.82;14.30;;;;;;;2.46;100.00;99215.44;1769134;79;21151;-62
2021/03/17 13:50:45;;;;;;;19.25;14.58;;;;;;;2.45;100.00;99219.78;1766570;79;21576;-64
2021/03/17 13:53:14;;;;;;;19.52;15.30;;;;;;;2.44;100.00;99216.89;1770559;79;21152;-61
2021/03/17 13:55:44;;;;;;;20.32;14.25;;;;;;;2.43;100.00;99216.58;1769861;79;21162;-61
2021/03/17 13:58:13;;;;;;;17.62;13.20;;;;;;;2.43;100.00;99223.01;1772728;78;21367;-61
2021/03/17 14:00:41;;;;;;;20.80;15.03;;;;;;;2.41;100.00;99226.20;1761256;80;21149;-62
2021/03/17 14:03:09;;;;;;;20.90;13.88;;;;;;;2.41;100.00;99222.34;1773548;80;21002;-65
2021/03/17 14:05:36;;;;;;;19.30;14.05;;;;;;;2.40;100.00;99218.97;1776579;80;21065;-60
2021/03/17 14:08:05;;;;;;;17.35;14.20;;;;;;;2.40;100.00;99220.25;1768465;79;21655;-61
2021/03/17 14:10:34;;;;;;;22.30;15.60;;;;;;;2.41;100.00;99219.28;1771643;79;21194;-63
2021/03/17 14:13:03;;;;;;;55.52;36.85;;;;;;;2.41;100.00;99215.43;1764615;80;22099;-62
2021/03/17 14:15:32;;;;;;;357.98;195.15;;;;;;;2.42;100.00;99209.80;1753165;80;21018;-63
2021/03/17 14:18:01;;;;;;;170.62;114.15;;;;;;;2.43;100.00;99212.72;1757700;80;21639;-62
2021/03/17 14:20:29;;;;;;;528.58;284.50;;;;;;;2.43;100.00;99218.66;1760237;79;21174;-62
2021/03/17 14:23:00;;;;;;;362.20;205.55;;;;;;;2.47;100.00;99218.36;1748870;80;21351;-63
2021/03/17 14:25:30;;;;;;;82.95;55.15;;;;;;;2.49;100.00;99210.79;1756596;80;22404;-61
2021/03/17 14:27:58;;;;;;;101.65;71.33;;;;;;;2.51;100.00;99212.73;1763787;79;21128;-62
2021/03/17 14:30:29;;;;;;;224.25;168.70;;;;;;;2.52;100.00;99220.77;1751352;80;22153;-61
2021/03/17 14:32:59;;;;;;;194.97;113.92;;;;;;;2.53;100.00;99220.28;1761582;80;21117;-62
2021/03/17 14:35:29;;;;;;;159.65;96.78;;;;;;;2.52;100.00;99218.20;1747039;80;21980;-61
2021/03/17 14:37:57;;;;;;;69.40;39.13;;;;;;;2.50;100.00;99221.88;1759646;80;21965;-61
2021/03/17 14:40:29;;;;;;;71.97;33.20;;;;;;;2.47;100.00;99220.93;1764012;80;21106;-62
2021/03/17 14:42:57;;;;;;;45.88;25.08;;;;;;;2.46;100.00;99222.67;1760494;80;21189;-62
2021/03/17 14:45:28;;;;;;;31.27;20.08;;;;;;;2.44;100.00;99217.70;1772164;79;21120;-62
2021/03/17 14:47:56;;;;;;;76.80;36.17;;;;;;;2.44;100.00;99228.47;1751597;81;21251;-62
2021/03/17 14:50:25;;;;;;;48.98;27.00;;;;;;;2.45;100.00;99224.92;1750910;80;21947;-61
2021/03/17 14:52:52;;;;;;;37.55;23.50;;;;;;;2.45;100.00;99223.64;1766345;80;21926;-62
2021/03/17 14:55:20;;;;;;;34.60;22.37;;;;;;;2.45;100.00;99224.92;1750119;80;21007;-65
2021/03/17 14:57:48;;;;;;;32.40;20.72;;;;;;;2.44;100.00;99221.55;1780059;79;21003;-63
2021/03/17 15:00:17;;;;;;;36.73;21.95;;;;;;;2.42;100.00;99220.09;1805950;78;21176;-62
2021/03/17 15:02:46;;;;;;;31.17;20.10;;;;;;;2.40;100.00;99222.02;1804790;78;21481;-62
2021/03/17 15:05:14;;;;;;;28.07;20.27;;;;;;;2.40;100.00;99211.73;1810825;77;21180;-67
2021/03/17 15:07:44;;;;;;;33.15;21.10;;;;;;;2.37;100.00;99214.61;1807655;78;22319;-64
2021/03/17 15:10:14;;;;;;;29.10;20.48;;;;;;;2.34;100.00;99217.49;1812256;77;20955;-62
2021/03/17 15:12:43;;;;;;;28.85;18.15;;;;;;;2.30;100.00;99218.77;1806811;77;21191;-62
2021/03/17 15:15:11;;;;;;;28.75;18.20;;;;;;;2.27;100.00;99230.64;1800859;78;21686;-63
2021/03/17 15:17:41;;;;;;;29.05;16.65;;;;;;;2.23;100.00;99232.71;1747197;80;21153;-64
2021/03/17 15:20:15;;;;;;;25.23;16.57;;;;;;;2.23;100.00;99238.34;1732647;82;27076;-63
2021/03/17 15:22:45;;;;;;;24.10;16.73;;;;;;;2.21;100.00;99238.98;1719990;82;21177;-65
2021/03/17 15:25:15;;;;;;;29.42;17.95;;;;;;;2.18;100.00;99242.66;1792392;79;21564;-63
2021/03/17 15:27:43;;;;;;;24.80;16.77;;;;;;;2.14;100.00;99243.93;1801195;79;21247;-64
2021/03/17 15:30:13;;;;;;;24.12;17.00;;;;;;;2.11;100.00;99243.75;1795381;79;21195;-64
2021/03/17 15:32:40;;;;;;;21.57;15.48;;;;;;;2.07;100.00;99242.93;1786003;79;21614;-64
2021/03/17 15:35:17;;;;;;;24.85;16.15;;;;;;;2.04;100.00;99245.31;1799729;78;20997;-66
2021/03/17 15:37:45;;;;;;;23.67;15.38;;;;;;;2.02;100.00;99250.30;1792578;78;21364;-62
2021/03/17 15:40:15;;;;;;;23.12;15.80;;;;;;;1.98;100.00;99247.72;1795783;78;21176;-64
2021/03/17 15:42:43;;;;;;;22.48;14.58;;;;;;;1.94;100.00;99247.22;1793372;79;21116;-67